createdAt,value
2024-02-09T00:02:20.895Z,4.80
2024-02-09T00:04:51.678Z,4.50
2024-02-09T00:07:22.915Z,5.00
2024-02-09T00:09:53.847Z,4.70
2024-02-09T00:12:25.437Z,3.50
2024-02-09T00:15:00.833Z,3.90
2024-02-09T00:17:34.133Z,4.70
2024-02-09T00:20:08.872Z,3.50
2024-02-09T00:22:40.739Z,4.30
2024-02-09T00:25:12.873Z,4.20
2024-02-09T00:27:44.692Z,4.50
2024-02-09T00:30:15.773Z,3.90
2024-02-09T00:32:47.658Z,4.30
2024-02-09T00:35:19.100Z,4.10
2024-02-09T00:37:49.911Z,3.80
2024-02-09T00:40:20.670Z,4.20
2024-02-09T00:42:52.908Z,4.20
2024-02-09T00:45:24.994Z,3.20
2024-02-09T00:47:57.516Z,3.70
2024-02-09T00:50:29.264Z,4.30
2024-02-09T00:53:05.853Z,3.60
2024-02-09T00:55:37.156Z,4.50
2024-02-09T00:58:08.128Z,4.40
2024-02-09T01:00:41.698Z,4.30
2024-02-09T01:03:13.499Z,3.80
2024-02-09T01:05:44.666Z,4.70
2024-02-09T01:08:16.347Z,3.70
2024-02-09T01:10:48.340Z,4.00
2024-02-09T01:13:37.199Z,4.70
2024-02-09T01:16:26.703Z,4.30
2024-02-09T01:19:15.328Z,4.00
2024-02-09T01:22:04.024Z,3.90
2024-02-09T01:24:52.399Z,4.30
2024-02-09T01:27:40.794Z,3.90
2024-02-09T01:30:30.757Z,3.40
2024-02-09T01:33:19.105Z,4.90
2024-02-09T01:36:07.717Z,4.00
2024-02-09T01:38:55.969Z,5.40
2024-02-09T01:41:44.586Z,4.10
2024-02-09T01:44:32.937Z,4.30
2024-02-09T01:47:22.260Z,4.90
2024-02-09T01:50:10.992Z,5.60
2024-02-09T01:52:59.848Z,4.90
2024-02-09T01:55:49.141Z,4.50
2024-02-09T01:58:38.457Z,4.40
2024-02-09T02:01:27.359Z,5.20
2024-02-09T02:04:16.578Z,4.80
2024-02-09T02:07:05.576Z,4.20
2024-02-09T02:09:53.928Z,5.20
2024-02-09T02:12:42.707Z,5.10
2024-02-09T02:15:30.991Z,4.70
2024-02-09T02:18:19.282Z,5.30
2024-02-09T02:21:08.132Z,5.00
2024-02-09T02:24:00.334Z,5.10
2024-02-09T02:26:49.130Z,4.00
2024-02-09T02:29:37.175Z,4.80
2024-02-09T02:32:25.406Z,4.50
2024-02-09T02:35:13.536Z,5.40
2024-02-09T02:38:02.115Z,5.40
2024-02-09T02:40:50.358Z,4.50
2024-02-09T02:43:20.014Z,5.10
2024-02-09T02:45:51.074Z,5.70
2024-02-09T02:48:39.586Z,5.00
2024-02-09T02:51:33.914Z,4.80
2024-02-09T02:54:22.359Z,4.90
2024-02-09T02:57:10.345Z,5.30
2024-02-09T02:59:58.420Z,4.20
2024-02-09T03:02:46.899Z,5.40
2024-02-09T03:05:19.598Z,4.10
2024-02-09T03:08:31.554Z,4.70
2024-02-09T03:10:41.476Z,5.20
2024-02-09T03:13:12.206Z,5.00
2024-02-09T03:15:46.349Z,4.70
2024-02-09T03:20:50.050Z,5.10
2024-02-09T03:23:21.274Z,4.90
2024-02-09T03:25:53.398Z,4.80
2024-02-09T03:28:24.335Z,4.40
2024-02-09T03:30:55.125Z,3.90
2024-02-09T03:33:26.088Z,4.00
2024-02-09T03:35:57.035Z,4.10
2024-02-09T03:38:27.864Z,3.80
2024-02-09T03:40:58.575Z,4.40
2024-02-09T03:43:29.388Z,3.40
2024-02-09T03:46:01.842Z,3.80
2024-02-09T03:48:32.770Z,3.60
2024-02-09T03:51:04.030Z,4.20
2024-02-09T03:53:35.271Z,4.20
2024-02-09T03:56:06.962Z,4.10
2024-02-09T03:58:37.689Z,4.00
2024-02-09T04:01:13.095Z,4.20
2024-02-09T04:03:44.065Z,4.20
2024-02-09T04:06:15.391Z,4.20
2024-02-09T04:08:46.395Z,3.80
2024-02-09T04:11:25.259Z,4.00
2024-02-09T04:13:56.178Z,3.90
2024-02-09T04:16:27.670Z,3.60
2024-02-09T04:19:02.737Z,3.70
2024-02-09T04:21:48.472Z,4.10
2024-02-09T04:24:21.100Z,4.60
2024-02-09T04:26:52.613Z,3.60
2024-02-09T04:29:24.177Z,3.90
2024-02-09T04:31:54.958Z,4.70
2024-02-09T04:34:25.852Z,4.50
2024-02-09T04:36:57.732Z,4.90
2024-02-09T04:39:28.422Z,4.60
2024-02-09T04:42:00.297Z,4.30
2024-02-09T04:44:31.101Z,5.10
2024-02-09T04:47:01.749Z,4.30
2024-02-09T04:49:32.456Z,4.00
2024-02-09T04:52:03.245Z,4.20
2024-02-09T04:54:35.106Z,4.20
2024-02-09T04:57:09.187Z,4.30
2024-02-09T04:59:39.918Z,3.80
2024-02-09T05:02:12.386Z,4.30
2024-02-09T05:04:43.503Z,3.50
2024-02-09T05:07:15.620Z,3.40
2024-02-09T05:09:46.417Z,4.00
2024-02-09T05:12:17.138Z,4.00
2024-02-09T05:14:52.704Z,5.20
2024-02-09T05:17:23.996Z,4.20
2024-02-09T05:19:59.328Z,3.80
2024-02-09T05:22:30.803Z,4.30
2024-02-09T05:25:03.766Z,4.50
2024-02-09T05:27:35.576Z,4.80
2024-02-09T05:30:09.814Z,5.30
2024-02-09T05:35:11.335Z,5.90
2024-02-09T05:37:42.147Z,6.10
2024-02-09T05:40:15.804Z,5.10
2024-02-09T05:42:46.463Z,4.00
2024-02-09T05:45:17.352Z,4.90
2024-02-09T05:47:48.138Z,4.40
2024-02-09T05:50:30.192Z,5.00
2024-02-09T05:53:04.257Z,5.00
2024-02-09T05:55:39.583Z,4.50
2024-02-09T05:58:10.616Z,5.30
2024-02-09T06:00:41.607Z,4.40
2024-02-09T06:03:12.700Z,6.10
2024-02-09T06:05:43.469Z,4.20
2024-02-09T06:08:14.132Z,4.60
2024-02-09T06:10:44.801Z,4.50
2024-02-09T06:13:15.749Z,4.50
2024-02-09T06:15:46.640Z,5.60
2024-02-09T06:18:17.415Z,5.30
2024-02-09T06:20:48.254Z,5.20
2024-02-09T06:23:18.929Z,4.50
2024-02-09T06:25:50.661Z,5.10
2024-02-09T06:28:22.387Z,4.80
2024-02-09T06:30:53.292Z,3.70
2024-02-09T06:33:24.274Z,4.80
2024-02-09T06:35:56.806Z,4.40
2024-02-09T06:38:27.861Z,4.10
2024-02-09T06:41:00.320Z,4.30
2024-02-09T06:43:31.087Z,4.10
2024-02-09T06:46:04.165Z,4.40
2024-02-09T06:48:35.274Z,4.50
2024-02-09T06:51:09.180Z,4.60
2024-02-09T06:53:40.272Z,4.30
2024-02-09T06:56:14.624Z,4.10
2024-02-09T06:58:46.695Z,3.90
2024-02-09T07:01:19.201Z,3.50
2024-02-09T07:03:51.011Z,3.60
2024-02-09T07:06:23.718Z,3.80
2024-02-09T07:08:54.995Z,3.90
2024-02-09T07:11:26.119Z,4.10
2024-02-09T07:13:56.904Z,3.60
2024-02-09T07:16:27.505Z,4.00
2024-02-09T07:18:58.508Z,4.40
2024-02-09T07:21:29.340Z,5.10
2024-02-09T07:24:04.556Z,4.10
2024-02-09T07:26:37.745Z,3.40
2024-02-09T07:29:08.395Z,4.00
2024-02-09T07:31:39.104Z,3.20
2024-02-09T07:34:13.639Z,3.70
2024-02-09T07:36:45.273Z,3.90
2024-02-09T07:39:19.983Z,3.60
2024-02-09T07:41:59.134Z,4.10
2024-02-09T07:44:32.114Z,4.00
2024-02-09T07:47:05.917Z,3.60
2024-02-09T07:49:37.483Z,3.30
2024-02-09T07:52:09.914Z,3.60
2024-02-09T07:54:40.701Z,3.20
2024-02-09T07:57:12.047Z,3.40
2024-02-09T07:59:43.852Z,3.80
2024-02-09T08:02:15.016Z,3.30
2024-02-09T08:04:46.116Z,3.20
2024-02-09T08:07:21.992Z,3.40
2024-02-09T08:09:52.764Z,3.80
2024-02-09T08:12:25.050Z,3.10
2024-02-09T08:14:58.545Z,3.50
2024-02-09T08:17:31.956Z,3.40
2024-02-09T08:20:05.341Z,4.00
2024-02-09T08:22:36.087Z,3.20
2024-02-09T08:25:08.059Z,4.00
2024-02-09T08:27:39.178Z,3.00
2024-02-09T08:30:11.986Z,3.10
2024-02-09T08:32:43.628Z,3.00
2024-02-09T08:35:14.610Z,3.30
2024-02-09T08:37:45.697Z,3.70
2024-02-09T08:40:18.209Z,2.60
2024-02-09T08:42:50.124Z,2.70
2024-02-09T08:45:21.130Z,3.10
2024-02-09T08:47:51.882Z,3.70
2024-02-09T08:50:22.610Z,3.40
2024-02-09T08:52:53.497Z,3.20
2024-02-09T08:55:24.241Z,3.20
2024-02-09T08:57:55.246Z,3.50
2024-02-09T09:00:25.965Z,3.80
2024-02-09T09:02:56.768Z,3.50
2024-02-09T09:05:29.373Z,3.50
2024-02-09T09:08:01.553Z,3.50
2024-02-09T09:10:32.510Z,3.10
2024-02-09T09:13:03.161Z,3.60
2024-02-09T09:15:33.890Z,3.40
2024-02-09T09:18:04.790Z,3.40
2024-02-09T09:20:36.658Z,4.40
2024-02-09T09:23:07.841Z,5.20
2024-02-09T09:25:38.585Z,6.30
2024-02-09T09:28:09.769Z,5.80
2024-02-09T09:30:40.436Z,6.00
2024-02-09T09:33:11.794Z,5.40
2024-02-09T09:35:42.729Z,4.00
2024-02-09T09:38:13.688Z,3.90
2024-02-09T09:40:49.535Z,4.40
2024-02-09T09:43:22.542Z,4.50
2024-02-09T09:45:57.860Z,4.40
2024-02-09T09:48:29.103Z,3.00
2024-02-09T09:51:00.865Z,4.00
2024-02-09T09:53:35.163Z,3.60
2024-02-09T09:56:08.047Z,3.90
2024-02-09T09:58:39.527Z,3.70
2024-02-09T10:01:14.459Z,3.90
2024-02-09T10:03:47.081Z,3.30
2024-02-09T10:06:18.270Z,3.60
2024-02-09T10:08:50.705Z,4.00
2024-02-09T10:11:21.984Z,4.10
2024-02-09T10:13:54.628Z,3.30
2024-02-09T10:16:25.467Z,3.50
2024-02-09T10:18:56.140Z,3.70
2024-02-09T10:21:27.002Z,3.50
2024-02-09T10:23:58.269Z,3.10
2024-02-09T10:26:30.119Z,4.30
2024-02-09T10:29:01.427Z,3.50
2024-02-09T10:31:32.763Z,2.80
2024-02-09T10:34:04.944Z,3.70
2024-02-09T10:36:36.789Z,3.50
2024-02-09T10:39:08.303Z,2.80
2024-02-09T10:41:43.312Z,2.70
2024-02-09T10:44:16.907Z,3.00
2024-02-09T10:46:48.970Z,3.30
2024-02-09T10:49:21.180Z,3.90
2024-02-09T10:51:53.796Z,3.60
2024-02-09T10:54:33.555Z,3.50
2024-02-09T10:57:06.541Z,3.70
2024-02-09T10:59:38.155Z,3.00
2024-02-09T11:02:09.905Z,3.60
2024-02-09T11:04:40.963Z,2.90
2024-02-09T11:07:12.606Z,3.80
2024-02-09T11:09:45.072Z,3.20
2024-02-09T11:12:15.752Z,3.40
2024-02-09T11:14:46.600Z,3.20
2024-02-09T11:17:21.107Z,3.00
2024-02-09T11:19:53.885Z,2.40
2024-02-09T11:22:24.973Z,2.90
2024-02-09T11:25:02.622Z,2.50
2024-02-09T11:27:34.642Z,2.90
2024-02-09T11:30:06.052Z,2.80
2024-02-09T11:32:39.916Z,2.90
2024-02-09T11:35:11.566Z,2.60
2024-02-09T11:37:46.245Z,2.30
2024-02-09T11:40:18.780Z,2.60
2024-02-09T11:42:49.538Z,3.20
2024-02-09T11:45:22.134Z,2.90
2024-02-09T11:47:53.817Z,3.70
2024-02-09T11:50:25.292Z,2.90
2024-02-09T11:53:11.997Z,3.00
2024-02-09T11:55:45.944Z,3.10
2024-02-09T11:58:18.037Z,2.60
2024-02-09T12:00:52.101Z,2.60
2024-02-09T12:03:23.098Z,2.50
2024-02-09T12:05:54.119Z,2.10
2024-02-09T12:08:26.035Z,2.20
2024-02-09T12:10:58.185Z,1.60
2024-02-09T12:13:30.036Z,1.70
2024-02-09T12:16:01.431Z,1.80
2024-02-09T12:18:32.197Z,2.90
2024-02-09T12:21:03.062Z,2.30
2024-02-09T12:23:35.356Z,1.80
2024-02-09T12:26:09.870Z,2.60
2024-02-09T12:28:41.583Z,1.90
2024-02-09T12:31:13.777Z,1.40
2024-02-09T12:33:48.272Z,1.10
2024-02-09T12:36:22.582Z,1.20
2024-02-09T12:38:57.149Z,1.50
2024-02-09T12:41:28.366Z,1.80
2024-02-09T12:44:03.659Z,1.00
2024-02-09T12:46:35.972Z,1.20
2024-02-09T12:49:09.623Z,1.00
2024-02-09T12:51:43.550Z,0.90
2024-02-09T12:54:14.324Z,1.80
2024-02-09T12:56:45.163Z,1.80
2024-02-09T12:59:16.936Z,2.30
2024-02-09T13:01:47.794Z,1.60
2024-02-09T13:04:21.667Z,1.40
2024-02-09T13:06:52.443Z,1.30
2024-02-09T13:09:23.236Z,1.60
2024-02-09T13:11:54.544Z,1.40
2024-02-09T13:14:25.274Z,1.20
2024-02-09T13:16:55.937Z,1.50
2024-02-09T13:19:27.128Z,1.40
2024-02-09T13:22:03.200Z,1.30
2024-02-09T13:24:34.122Z,1.40
2024-02-09T13:27:06.158Z,1.50
2024-02-09T13:29:37.265Z,0.90
2024-02-09T13:32:09.038Z,1.00
2024-02-09T13:34:39.845Z,1.00
2024-02-09T13:37:10.647Z,1.20
2024-02-09T13:39:41.297Z,0.90
2024-02-09T13:42:12.193Z,1.10
2024-02-09T13:44:42.858Z,1.10
2024-02-09T13:47:13.435Z,1.60
2024-02-09T13:49:44.380Z,1.00
2024-02-09T13:52:15.336Z,1.40
2024-02-09T13:54:46.073Z,1.20
2024-02-09T13:57:17.979Z,1.40
2024-02-09T13:59:51.101Z,1.20
2024-02-09T14:02:22.127Z,1.50
2024-02-09T14:04:52.897Z,1.50
2024-02-09T14:07:24.683Z,1.10
2024-02-09T14:09:56.960Z,1.10
2024-02-09T14:12:29.025Z,1.50
2024-02-09T14:15:02.450Z,1.20
2024-02-09T14:17:33.374Z,1.60
2024-02-09T14:20:05.120Z,1.00
2024-02-09T14:22:36.196Z,1.20
2024-02-09T14:25:10.756Z,1.20
2024-02-09T14:27:43.484Z,0.90
2024-02-09T14:30:17.204Z,2.40
2024-02-09T14:32:48.131Z,1.30
2024-02-09T14:35:19.420Z,2.20
2024-02-09T14:37:51.828Z,1.50
2024-02-09T14:40:23.779Z,1.30
2024-02-09T14:42:56.047Z,1.30
2024-02-09T14:45:26.801Z,1.10
2024-02-09T14:47:59.200Z,1.30
2024-02-09T14:50:30.664Z,1.60
2024-02-09T14:53:01.953Z,1.60
2024-02-09T14:55:32.848Z,2.00
2024-02-09T14:58:04.072Z,1.40
2024-02-09T15:00:35.341Z,1.30
2024-02-09T15:03:08.560Z,1.20
2024-02-09T15:05:44.030Z,1.70
2024-02-09T15:08:15.159Z,2.00
2024-02-09T15:10:46.023Z,1.10
2024-02-09T15:13:17.020Z,1.50
2024-02-09T15:15:51.014Z,1.70
2024-02-09T15:19:32.501Z,1.20
2024-02-09T15:22:03.336Z,4.60
2024-02-09T15:24:34.807Z,2.90
2024-02-09T15:27:06.108Z,6.80
2024-02-09T15:29:37.155Z,2.40
2024-02-09T15:32:09.866Z,2.50
2024-02-09T15:34:41.211Z,4.10
2024-02-09T15:37:12.337Z,4.40
2024-02-09T15:39:43.224Z,2.90
2024-02-09T15:42:16.339Z,3.10
2024-02-09T15:44:47.491Z,3.00
2024-02-09T15:47:18.406Z,3.80
2024-02-09T15:49:50.975Z,8.50
2024-02-09T15:52:21.882Z,5.80
2024-02-09T15:54:54.108Z,4.20
2024-02-09T15:57:28.707Z,3.20
2024-02-09T15:59:59.646Z,2.90
2024-02-09T16:02:30.985Z,3.80
2024-02-09T16:05:02.378Z,4.60
2024-02-09T16:07:33.449Z,2.90
2024-02-09T16:10:04.505Z,2.60
2024-02-09T16:12:35.269Z,2.30
2024-02-09T16:15:07.240Z,3.20
2024-02-09T16:17:38.019Z,3.50
2024-02-09T16:20:16.016Z,2.70
2024-02-09T16:22:47.665Z,2.80
2024-02-09T16:25:20.623Z,4.90
2024-02-09T16:27:51.722Z,9.60
2024-02-09T16:30:22.569Z,11.20
2024-02-09T16:32:53.324Z,9.70
2024-02-09T16:35:25.316Z,5.00
2024-02-09T16:37:58.257Z,4.00
2024-02-09T16:40:28.994Z,3.00
2024-02-09T16:42:59.928Z,3.30
2024-02-09T16:45:31.768Z,2.40
2024-02-09T16:48:03.490Z,2.60
2024-02-09T16:50:35.932Z,3.30
2024-02-09T16:53:08.064Z,3.80
2024-02-09T16:55:38.951Z,4.10
2024-02-09T16:58:09.796Z,3.70
2024-02-09T17:00:40.704Z,4.30
2024-02-09T17:03:14.024Z,4.30
2024-02-09T17:05:44.988Z,5.30
2024-02-09T17:08:15.940Z,4.30
2024-02-09T17:10:47.466Z,3.70
2024-02-09T17:13:18.378Z,3.90
2024-02-09T17:15:49.447Z,4.30
2024-02-09T17:18:20.328Z,4.50
2024-02-09T17:20:51.082Z,5.60
2024-02-09T17:23:21.909Z,6.40
2024-02-09T17:25:53.413Z,4.90
2024-02-09T17:28:24.245Z,5.60
2024-02-09T17:30:55.094Z,6.10
2024-02-09T17:33:28.591Z,7.10
2024-02-09T17:35:59.548Z,6.90
2024-02-09T17:38:30.582Z,5.90
2024-02-09T17:41:01.451Z,6.10
2024-02-09T17:43:32.337Z,6.70
2024-02-09T17:46:03.236Z,8.00
2024-02-09T17:48:35.804Z,9.90
2024-02-09T17:51:08.639Z,9.60
2024-02-09T17:53:39.466Z,10.10
2024-02-09T17:56:11.460Z,9.30
2024-02-09T17:59:01.967Z,8.40
2024-02-09T18:01:38.644Z,8.20
2024-02-09T18:04:13.446Z,7.30
2024-02-09T18:06:45.676Z,6.60
2024-02-09T18:09:17.093Z,5.50
2024-02-09T18:11:47.824Z,4.80
2024-02-09T18:14:18.735Z,4.10
2024-02-09T18:16:49.597Z,4.80
2024-02-09T18:19:20.502Z,4.70
2024-02-09T18:21:53.305Z,4.60
2024-02-09T18:24:54.314Z,6.00
2024-02-09T18:27:31.307Z,5.00
2024-02-09T18:30:05.417Z,4.60
2024-02-09T18:32:43.721Z,4.40
2024-02-09T18:35:24.319Z,3.90
2024-02-09T18:38:02.818Z,3.90
2024-02-09T18:40:33.535Z,3.90
2024-02-09T18:43:12.314Z,3.40
2024-02-09T18:45:43.217Z,3.50
2024-02-09T18:48:15.491Z,4.00
2024-02-09T18:50:46.498Z,3.90
2024-02-09T18:53:37.772Z,3.80
2024-02-09T18:56:11.464Z,4.40
2024-02-09T18:59:08.525Z,5.30
2024-02-09T19:01:43.746Z,3.70
2024-02-09T19:07:15.461Z,4.20
2024-02-09T19:09:47.427Z,3.70
2024-02-09T19:12:54.723Z,4.10
2024-02-09T19:15:27.079Z,5.20
2024-02-09T19:18:06.310Z,4.30
2024-02-09T19:20:37.310Z,4.50
2024-02-09T19:23:09.062Z,5.10
2024-02-09T19:25:40.260Z,4.40
2024-02-09T19:28:13.577Z,5.10
2024-02-09T19:30:45.111Z,4.50
2024-02-09T19:33:16.505Z,4.90
2024-02-09T19:35:50.170Z,4.70
2024-02-09T19:38:21.445Z,4.60
2024-02-09T19:40:52.288Z,4.90
2024-02-09T19:43:23.108Z,5.70
2024-02-09T19:45:58.652Z,4.70
2024-02-09T19:48:29.522Z,4.50
2024-02-09T19:51:00.421Z,5.00
2024-02-09T19:53:31.852Z,5.30
2024-02-09T19:56:04.041Z,5.30
2024-02-09T19:58:35.783Z,6.00
2024-02-09T20:01:09.154Z,4.90
2024-02-09T20:03:43.982Z,5.90
2024-02-09T20:06:15.512Z,5.40
2024-02-09T20:08:46.443Z,6.50
2024-02-09T20:11:17.437Z,5.20
2024-02-09T20:13:48.188Z,6.50
2024-02-09T20:16:21.053Z,6.20
2024-02-09T20:18:53.380Z,5.80
2024-02-09T20:21:45.095Z,5.50
2024-02-09T20:24:36.661Z,5.30
2024-02-09T20:27:51.979Z,5.30
2024-02-09T20:30:35.371Z,5.50
2024-02-09T20:33:26.686Z,6.40
2024-02-09T20:36:18.929Z,6.80
2024-02-09T20:39:27.872Z,6.30
2024-02-09T20:42:23.959Z,5.20
2024-02-09T20:45:08.141Z,6.10
2024-02-09T20:47:53.188Z,5.60
2024-02-09T20:51:11.876Z,5.80
2024-02-09T20:54:17.882Z,5.70
2024-02-09T20:57:21.238Z,5.40
2024-02-09T20:59:56.357Z,5.30
2024-02-09T21:02:29.300Z,6.10
2024-02-09T21:05:00.387Z,5.90
2024-02-09T21:07:33.238Z,5.70
2024-02-09T21:10:04.260Z,5.70
2024-02-09T21:12:35.172Z,5.60
2024-02-09T21:15:07.128Z,6.60
2024-02-09T21:17:40.042Z,6.00
2024-02-09T21:20:13.742Z,6.40
2024-02-09T21:22:45.276Z,6.60
2024-02-09T21:25:19.926Z,6.70
2024-02-09T21:27:54.359Z,6.80
2024-02-09T21:30:25.875Z,6.30
2024-02-09T21:33:01.292Z,6.80
2024-02-09T21:35:33.527Z,7.50
2024-02-09T21:38:04.467Z,6.70
2024-02-09T21:40:36.580Z,7.10
2024-02-09T21:43:09.178Z,7.50
2024-02-09T21:45:48.451Z,7.60
2024-02-09T21:48:21.271Z,5.90
2024-02-09T21:50:52.506Z,7.30
2024-02-09T21:53:27.173Z,7.30
2024-02-09T21:55:58.212Z,6.60
2024-02-09T21:58:29.352Z,6.60
2024-02-09T22:01:00.322Z,6.30
2024-02-09T22:03:31.955Z,5.90
2024-02-09T22:06:04.249Z,6.20
2024-02-09T22:08:35.106Z,7.50
2024-02-09T22:11:07.972Z,6.30
2024-02-09T22:13:38.839Z,6.30
2024-02-09T22:16:10.562Z,6.70
2024-02-09T22:18:43.234Z,7.00
2024-02-09T22:21:17.638Z,6.90
2024-02-09T22:23:49.750Z,6.50
2024-02-09T22:26:21.829Z,6.60
2024-02-09T22:28:54.309Z,6.70
2024-02-09T22:31:30.580Z,6.20
2024-02-09T22:34:01.534Z,6.80
2024-02-09T22:36:32.543Z,6.20
2024-02-09T22:39:06.410Z,6.60
2024-02-09T22:41:38.530Z,6.10
2024-02-09T22:44:12.133Z,6.30
2024-02-09T22:46:43.050Z,5.20
2024-02-09T22:49:15.477Z,5.50
2024-02-09T22:51:46.650Z,5.50
2024-02-09T22:54:17.386Z,6.20
2024-02-09T22:56:48.424Z,5.70
2024-02-09T22:59:22.502Z,5.90
2024-02-09T23:04:24.487Z,5.20
2024-02-09T23:06:57.132Z,5.50
2024-02-09T23:09:27.908Z,5.40
2024-02-09T23:12:00.325Z,5.70
2024-02-09T23:14:32.910Z,5.80
2024-02-09T23:17:04.950Z,5.20
2024-02-09T23:19:38.050Z,4.90
2024-02-09T23:22:09.544Z,6.00
2024-02-09T23:24:40.477Z,6.10
2024-02-09T23:27:12.011Z,6.10
2024-02-09T23:29:42.885Z,5.40
2024-02-09T23:32:13.598Z,5.80
2024-02-09T23:34:46.600Z,5.00
2024-02-09T23:37:18.932Z,5.70
2024-02-09T23:39:50.088Z,5.80
2024-02-09T23:42:32.228Z,4.90
2024-02-09T23:45:04.348Z,4.70
2024-02-09T23:47:35.978Z,5.10
2024-02-09T23:50:09.334Z,5.60
2024-02-09T23:52:40.460Z,4.50
2024-02-09T23:55:16.301Z,4.30
2024-02-09T23:57:47.594Z,4.60
